sensor_id;sensor_type;location;lat;lon;timestamp;P1;durP1;ratioP1;P2;durP2;ratioP2
43990;SDS011;29654;50.784;20.604;2022-07-23T00:01:36;10.45;;;8.52;;
43990;SDS011;29654;50.784;20.604;2022-07-23T00:06:39;11.60;;;8.23;;
43990;SDS011;29654;50.784;20.604;2022-07-23T00:11:42;9.50;;;8.60;;
43990;SDS011;29654;50.784;20.604;2022-07-23T00:16:46;8.73;;;7.93;;
43990;SDS011;29654;50.784;20.604;2022-07-23T00:21:49;8.35;;;7.55;;
43990;SDS011;29654;50.784;20.604;2022-07-23T00:26:52;8.93;;;8.23;;
43990;SDS011;29654;50.784;20.604;2022-07-23T00:31:56;8.48;;;7.70;;
43990;SDS011;29654;50.784;20.604;2022-07-23T00:36:59;9.77;;;8.88;;
43990;SDS011;29654;50.784;20.604;2022-07-23T00:42:02;9.73;;;8.73;;
43990;SDS011;29654;50.784;20.604;2022-07-23T00:47:06;9.52;;;8.63;;
43990;SDS011;29654;50.784;20.604;2022-07-23T00:52:09;10.50;;;9.45;;
43990;SDS011;29654;50.784;20.604;2022-07-23T00:57:12;9.85;;;9.02;;
43990;SDS011;29654;50.784;20.604;2022-07-23T01:02:17;10.88;;;9.60;;
43990;SDS011;29654;50.784;20.604;2022-07-23T01:07:20;10.73;;;9.57;;
43990;SDS011;29654;50.784;20.604;2022-07-23T01:12:23;13.43;;;9.68;;
43990;SDS011;29654;50.784;20.604;2022-07-23T01:17:29;11.73;;;9.30;;
43990;SDS011;29654;50.784;20.604;2022-07-23T01:22:33;11.82;;;8.70;;
43990;SDS011;29654;50.784;20.604;2022-07-23T01:27:36;9.75;;;8.68;;
43990;SDS011;29654;50.784;20.604;2022-07-23T01:32:39;10.27;;;8.38;;
43990;SDS011;29654;50.784;20.604;2022-07-23T01:37:44;9.98;;;9.05;;
43990;SDS011;29654;50.784;20.604;2022-07-23T01:42:47;12.50;;;10.35;;
43990;SDS011;29654;50.784;20.604;2022-07-23T01:47:51;9.15;;;7.90;;
43990;SDS011;29654;50.784;20.604;2022-07-23T01:52:56;11.18;;;8.93;;
43990;SDS011;29654;50.784;20.604;2022-07-23T01:57:59;12.23;;;9.98;;
43990;SDS011;29654;50.784;20.604;2022-07-23T02:03:03;10.02;;;9.07;;
43990;SDS011;29654;50.784;20.604;2022-07-23T02:08:08;11.32;;;8.95;;
43990;SDS011;29654;50.784;20.604;2022-07-23T02:13:11;11.20;;;10.07;;
43990;SDS011;29654;50.784;20.604;2022-07-23T02:18:14;15.82;;;10.85;;
43990;SDS011;29654;50.784;20.604;2022-07-23T02:23:18;9.77;;;8.77;;
43990;SDS011;29654;50.784;20.604;2022-07-23T02:28:21;10.38;;;9.35;;
43990;SDS011;29654;50.784;20.604;2022-07-23T02:33:24;10.63;;;9.63;;
43990;SDS011;29654;50.784;20.604;2022-07-23T02:38:29;12.20;;;9.20;;
43990;SDS011;29654;50.784;20.604;2022-07-23T02:43:32;12.05;;;10.82;;
43990;SDS011;29654;50.784;20.604;2022-07-23T02:48:35;11.15;;;10.20;;
43990;SDS011;29654;50.784;20.604;2022-07-23T02:53:40;11.30;;;10.15;;
43990;SDS011;29654;50.784;20.604;2022-07-23T02:58:44;10.40;;;9.40;;
43990;SDS011;29654;50.784;20.604;2022-07-23T03:03:48;11.15;;;10.02;;
43990;SDS011;29654;50.784;20.604;2022-07-23T03:08:53;10.82;;;9.93;;
43990;SDS011;29654;50.784;20.604;2022-07-23T03:13:55;11.02;;;9.93;;
43990;SDS011;29654;50.784;20.604;2022-07-23T03:18:58;11.88;;;10.38;;
43990;SDS011;29654;50.784;20.604;2022-07-23T03:24:03;10.52;;;9.45;;
43990;SDS011;29654;50.784;20.604;2022-07-23T03:29:06;12.18;;;11.02;;
43990;SDS011;29654;50.784;20.604;2022-07-23T03:34:09;12.40;;;11.27;;
43990;SDS011;29654;50.784;20.604;2022-07-23T03:39:14;11.13;;;10.10;;
43990;SDS011;29654;50.784;20.604;2022-07-23T03:44:17;12.20;;;10.30;;
43990;SDS011;29654;50.784;20.604;2022-07-23T03:49:20;12.10;;;11.00;;
43990;SDS011;29654;50.784;20.604;2022-07-23T03:54:24;11.23;;;10.02;;
43990;SDS011;29654;50.784;20.604;2022-07-23T03:59:27;11.85;;;10.80;;
43990;SDS011;29654;50.784;20.604;2022-07-23T04:04:30;10.45;;;9.55;;
43990;SDS011;29654;50.784;20.604;2022-07-23T04:09:35;12.00;;;10.85;;
43990;SDS011;29654;50.784;20.604;2022-07-23T04:14:38;18.02;;;11.13;;
43990;SDS011;29654;50.784;20.604;2022-07-23T04:19:41;11.65;;;10.60;;
43990;SDS011;29654;50.784;20.604;2022-07-23T04:24:48;12.50;;;11.18;;
43990;SDS011;29654;50.784;20.604;2022-07-23T04:29:51;14.15;;;12.07;;
43990;SDS011;29654;50.784;20.604;2022-07-23T04:34:54;21.92;;;13.20;;
43990;SDS011;29654;50.784;20.604;2022-07-23T04:39:58;19.35;;;12.68;;
43990;SDS011;29654;50.784;20.604;2022-07-23T04:45:01;21.95;;;14.13;;
43990;SDS011;29654;50.784;20.604;2022-07-23T04:50:05;22.63;;;14.07;;
43990;SDS011;29654;50.784;20.604;2022-07-23T04:55:12;25.02;;;14.43;;
43990;SDS011;29654;50.784;20.604;2022-07-23T05:00:16;18.23;;;14.02;;
43990;SDS011;29654;50.784;20.604;2022-07-23T05:05:20;17.40;;;14.45;;
43990;SDS011;29654;50.784;20.604;2022-07-23T05:10:26;29.10;;;14.90;;
43990;SDS011;29654;50.784;20.604;2022-07-23T05:15:30;15.77;;;14.13;;
43990;SDS011;29654;50.784;20.604;2022-07-23T05:20:33;16.88;;;14.95;;
43990;SDS011;29654;50.784;20.604;2022-07-23T05:25:39;19.05;;;15.25;;
43990;SDS011;29654;50.784;20.604;2022-07-23T05:30:43;20.17;;;15.07;;
43990;SDS011;29654;50.784;20.604;2022-07-23T05:35:49;18.48;;;13.65;;
43990;SDS011;29654;50.784;20.604;2022-07-23T05:41:04;20.23;;;13.95;;
43990;SDS011;29654;50.784;20.604;2022-07-23T05:46:08;17.02;;;12.75;;
43990;SDS011;29654;50.784;20.604;2022-07-23T05:51:13;13.57;;;12.27;;
43990;SDS011;29654;50.784;20.604;2022-07-23T05:56:17;13.60;;;12.25;;
43990;SDS011;29654;50.784;20.604;2022-07-23T06:01:21;11.57;;;10.27;;
43990;SDS011;29654;50.784;20.604;2022-07-23T06:06:34;9.18;;;8.38;;
43990;SDS011;29654;50.784;20.604;2022-07-23T06:11:39;10.48;;;8.95;;
43990;SDS011;29654;50.784;20.604;2022-07-23T06:16:42;11.00;;;9.93;;
43990;SDS011;29654;50.784;20.604;2022-07-23T06:21:45;13.18;;;10.35;;
43990;SDS011;29654;50.784;20.604;2022-07-23T06:26:51;12.48;;;9.75;;
43990;SDS011;29654;50.784;20.604;2022-07-23T06:31:54;10.15;;;8.93;;
43990;SDS011;29654;50.784;20.604;2022-07-23T06:36:57;10.18;;;9.20;;
43990;SDS011;29654;50.784;20.604;2022-07-23T06:42:02;10.45;;;9.48;;
43990;SDS011;29654;50.784;20.604;2022-07-23T06:47:18;10.52;;;9.52;;
43990;SDS011;29654;50.784;20.604;2022-07-23T06:52:21;8.95;;;8.25;;
43990;SDS011;29654;50.784;20.604;2022-07-23T06:57:25;7.90;;;7.32;;
43990;SDS011;29654;50.784;20.604;2022-07-23T07:02:28;9.43;;;8.63;;
43990;SDS011;29654;50.784;20.604;2022-07-23T07:07:31;9.13;;;8.32;;
43990;SDS011;29654;50.784;20.604;2022-07-23T07:12:36;9.32;;;8.52;;
43990;SDS011;29654;50.784;20.604;2022-07-23T07:17:39;8.70;;;8.00;;
43990;SDS011;29654;50.784;20.604;2022-07-23T07:22:42;9.20;;;8.50;;
43990;SDS011;29654;50.784;20.604;2022-07-23T07:27:47;9.40;;;8.68;;
43990;SDS011;29654;50.784;20.604;2022-07-23T07:32:50;9.07;;;8.27;;
43990;SDS011;29654;50.784;20.604;2022-07-23T07:37:53;8.50;;;7.80;;
43990;SDS011;29654;50.784;20.604;2022-07-23T07:42:57;8.93;;;8.07;;
43990;SDS011;29654;50.784;20.604;2022-07-23T07:48:00;9.48;;;8.65;;
43990;SDS011;29654;50.784;20.604;2022-07-23T07:53:03;9.30;;;8.57;;
43990;SDS011;29654;50.784;20.604;2022-07-23T07:58:07;9.60;;;8.80;;
43990;SDS011;29654;50.784;20.604;2022-07-23T08:03:10;9.90;;;9.15;;
43990;SDS011;29654;50.784;20.604;2022-07-23T08:08:13;12.43;;;9.32;;
43990;SDS011;29654;50.784;20.604;2022-07-23T08:13:17;9.77;;;8.90;;
43990;SDS011;29654;50.784;20.604;2022-07-23T08:18:20;9.93;;;9.02;;
43990;SDS011;29654;50.784;20.604;2022-07-23T08:23:23;9.43;;;8.70;;
43990;SDS011;29654;50.784;20.604;2022-07-23T08:28:29;8.68;;;7.97;;
43990;SDS011;29654;50.784;20.604;2022-07-23T08:33:33;8.65;;;8.05;;
43990;SDS011;29654;50.784;20.604;2022-07-23T08:38:36;7.88;;;7.22;;
43990;SDS011;29654;50.784;20.604;2022-07-23T08:43:40;7.85;;;7.25;;
43990;SDS011;29654;50.784;20.604;2022-07-23T08:48:44;7.50;;;6.90;;
43990;SDS011;29654;50.784;20.604;2022-07-23T08:53:50;7.85;;;7.10;;
43990;SDS011;29654;50.784;20.604;2022-07-23T08:58:56;7.75;;;7.15;;
43990;SDS011;29654;50.784;20.604;2022-07-23T09:04:00;8.70;;;7.43;;
43990;SDS011;29654;50.784;20.604;2022-07-23T09:09:16;7.45;;;6.88;;
43990;SDS011;29654;50.784;20.604;2022-07-23T09:14:26;7.65;;;7.05;;
43990;SDS011;29654;50.784;20.604;2022-07-23T09:19:39;7.38;;;6.78;;
43990;SDS011;29654;50.784;20.604;2022-07-23T09:25:03;7.40;;;6.88;;
43990;SDS011;29654;50.784;20.604;2022-07-23T09:30:10;7.75;;;7.05;;
43990;SDS011;29654;50.784;20.604;2022-07-23T09:35:13;6.88;;;6.28;;
43990;SDS011;29654;50.784;20.604;2022-07-23T09:40:16;7.10;;;6.57;;
43990;SDS011;29654;50.784;20.604;2022-07-23T09:45:21;7.20;;;6.60;;
43990;SDS011;29654;50.784;20.604;2022-07-23T09:50:24;7.07;;;6.57;;
43990;SDS011;29654;50.784;20.604;2022-07-23T09:55:30;6.95;;;6.32;;
43990;SDS011;29654;50.784;20.604;2022-07-23T10:00:38;7.13;;;6.43;;
43990;SDS011;29654;50.784;20.604;2022-07-23T10:05:42;7.95;;;6.75;;
43990;SDS011;29654;50.784;20.604;2022-07-23T10:10:59;6.82;;;6.40;;
43990;SDS011;29654;50.784;20.604;2022-07-23T10:16:08;7.88;;;7.18;;
43990;SDS011;29654;50.784;20.604;2022-07-23T10:21:11;7.05;;;6.45;;
43990;SDS011;29654;50.784;20.604;2022-07-23T10:26:22;11.35;;;8.13;;
43990;SDS011;29654;50.784;20.604;2022-07-23T10:31:38;6.38;;;5.97;;
43990;SDS011;29654;50.784;20.604;2022-07-23T10:36:53;7.70;;;7.00;;
43990;SDS011;29654;50.784;20.604;2022-07-23T10:42:09;7.15;;;6.60;;
43990;SDS011;29654;50.784;20.604;2022-07-23T10:47:25;7.30;;;6.70;;
43990;SDS011;29654;50.784;20.604;2022-07-23T10:52:42;7.43;;;6.72;;
43990;SDS011;29654;50.784;20.604;2022-07-23T10:58:21;7.60;;;6.80;;
43990;SDS011;29654;50.784;20.604;2022-07-23T11:03:54;8.13;;;7.53;;
43990;SDS011;29654;50.784;20.604;2022-07-23T11:25:33;7.13;;;6.45;;
43990;SDS011;29654;50.784;20.604;2022-07-23T11:30:38;6.22;;;5.82;;
43990;SDS011;29654;50.784;20.604;2022-07-23T11:35:45;6.88;;;6.38;;
43990;SDS011;29654;50.784;20.604;2022-07-23T11:40:52;6.57;;;6.07;;
43990;SDS011;29654;50.784;20.604;2022-07-23T11:45:58;6.32;;;5.93;;
43990;SDS011;29654;50.784;20.604;2022-07-23T11:51:04;6.43;;;5.97;;
43990;SDS011;29654;50.784;20.604;2022-07-23T11:56:07;6.85;;;6.28;;
43990;SDS011;29654;50.784;20.604;2022-07-23T12:01:12;6.53;;;6.03;;
43990;SDS011;29654;50.784;20.604;2022-07-23T12:06:16;6.65;;;6.15;;
43990;SDS011;29654;50.784;20.604;2022-07-23T12:11:19;6.50;;;6.07;;
43990;SDS011;29654;50.784;20.604;2022-07-23T12:16:22;6.88;;;6.28;;
43990;SDS011;29654;50.784;20.604;2022-07-23T12:21:27;6.38;;;5.95;;
43990;SDS011;29654;50.784;20.604;2022-07-23T12:26:30;5.85;;;5.45;;
43990;SDS011;29654;50.784;20.604;2022-07-23T12:31:33;6.47;;;6.07;;
43990;SDS011;29654;50.784;20.604;2022-07-23T12:36:40;6.05;;;5.55;;
43990;SDS011;29654;50.784;20.604;2022-07-23T12:41:51;6.95;;;6.35;;
43990;SDS011;29654;50.784;20.604;2022-07-23T12:46:54;6.68;;;6.07;;
43990;SDS011;29654;50.784;20.604;2022-07-23T12:51:59;7.00;;;6.50;;
43990;SDS011;29654;50.784;20.604;2022-07-23T12:57:02;6.57;;;6.07;;
43990;SDS011;29654;50.784;20.604;2022-07-23T13:02:07;6.15;;;5.65;;
43990;SDS011;29654;50.784;20.604;2022-07-23T13:07:12;6.22;;;5.82;;
43990;SDS011;29654;50.784;20.604;2022-07-23T13:12:15;6.82;;;6.32;;
43990;SDS011;29654;50.784;20.604;2022-07-23T13:17:19;6.53;;;6.03;;
43990;SDS011;29654;50.784;20.604;2022-07-23T13:22:23;5.63;;;5.18;;
43990;SDS011;29654;50.784;20.604;2022-07-23T13:27:26;6.57;;;5.97;;
43990;SDS011;29654;50.784;20.604;2022-07-23T13:32:29;6.72;;;6.32;;
43990;SDS011;29654;50.784;20.604;2022-07-23T13:37:34;7.00;;;6.50;;
43990;SDS011;29654;50.784;20.604;2022-07-23T13:42:37;6.57;;;6.13;;
43990;SDS011;29654;50.784;20.604;2022-07-23T13:47:40;6.30;;;5.90;;
43990;SDS011;29654;50.784;20.604;2022-07-23T13:52:44;6.47;;;5.97;;
43990;SDS011;29654;50.784;20.604;2022-07-23T13:57:47;5.95;;;5.55;;
43990;SDS011;29654;50.784;20.604;2022-07-23T14:02:50;6.03;;;5.65;;
43990;SDS011;29654;50.784;20.604;2022-07-23T14:07:55;5.90;;;5.50;;
43990;SDS011;29654;50.784;20.604;2022-07-23T14:12:58;6.43;;;5.97;;
43990;SDS011;29654;50.784;20.604;2022-07-23T14:18:02;6.43;;;5.93;;
43990;SDS011;29654;50.784;20.604;2022-07-23T14:23:06;6.15;;;5.75;;
43990;SDS011;29654;50.784;20.604;2022-07-23T14:28:09;6.20;;;5.70;;
43990;SDS011;29654;50.784;20.604;2022-07-23T14:33:13;7.25;;;6.68;;
43990;SDS011;29654;50.784;20.604;2022-07-23T14:38:18;7.10;;;6.60;;
43990;SDS011;29654;50.784;20.604;2022-07-23T14:43:21;7.00;;;6.50;;
43990;SDS011;29654;50.784;20.604;2022-07-23T14:48:24;6.82;;;6.43;;
43990;SDS011;29654;50.784;20.604;2022-07-23T14:53:28;8.10;;;7.25;;
43990;SDS011;29654;50.784;20.604;2022-07-23T14:58:32;8.25;;;7.32;;
43990;SDS011;29654;50.784;20.604;2022-07-23T15:03:34;7.88;;;7.28;;
43990;SDS011;29654;50.784;20.604;2022-07-23T15:08:39;8.02;;;7.13;;
43990;SDS011;29654;50.784;20.604;2022-07-23T15:13:42;8.15;;;7.53;;
43990;SDS011;29654;50.784;20.604;2022-07-23T15:18:45;7.60;;;7.05;;
43990;SDS011;29654;50.784;20.604;2022-07-23T15:23:49;7.80;;;7.25;;
43990;SDS011;29654;50.784;20.604;2022-07-23T15:28:53;8.07;;;7.45;;
43990;SDS011;29654;50.784;20.604;2022-07-23T15:33:56;7.55;;;7.05;;
43990;SDS011;29654;50.784;20.604;2022-07-23T15:39:00;8.75;;;7.90;;
43990;SDS011;29654;50.784;20.604;2022-07-23T15:44:03;10.07;;;9.23;;
43990;SDS011;29654;50.784;20.604;2022-07-23T15:49:06;36.25;;;10.20;;
43990;SDS011;29654;50.784;20.604;2022-07-23T15:54:10;17.73;;;8.68;;
43990;SDS011;29654;50.784;20.604;2022-07-23T15:59:13;18.05;;;7.82;;
43990;SDS011;29654;50.784;20.604;2022-07-23T16:04:16;10.20;;;7.10;;
43990;SDS011;29654;50.784;20.604;2022-07-23T16:09:21;8.27;;;5.43;;
43990;SDS011;29654;50.784;20.604;2022-07-23T16:14:23;8.38;;;4.72;;
43990;SDS011;29654;50.784;20.604;2022-07-23T16:19:26;6.78;;;5.15;;
43990;SDS011;29654;50.784;20.604;2022-07-23T16:24:31;7.85;;;4.75;;
43990;SDS011;29654;50.784;20.604;2022-07-23T16:29:33;6.60;;;4.85;;
43990;SDS011;29654;50.784;20.604;2022-07-23T16:34:36;6.22;;;4.63;;
43990;SDS011;29654;50.784;20.604;2022-07-23T16:39:41;4.45;;;4.05;;
43990;SDS011;29654;50.784;20.604;2022-07-23T16:44:44;4.50;;;4.20;;
43990;SDS011;29654;50.784;20.604;2022-07-23T16:49:47;4.95;;;4.43;;
43990;SDS011;29654;50.784;20.604;2022-07-23T16:54:51;4.57;;;4.18;;
43990;SDS011;29654;50.784;20.604;2022-07-23T16:59:54;4.32;;;4.03;;
43990;SDS011;29654;50.784;20.604;2022-07-23T17:04:57;3.65;;;3.35;;
43990;SDS011;29654;50.784;20.604;2022-07-23T17:10:02;5.05;;;4.65;;
43990;SDS011;29654;50.784;20.604;2022-07-23T17:15:06;3.90;;;3.60;;
43990;SDS011;29654;50.784;20.604;2022-07-23T17:20:09;6.45;;;3.90;;
43990;SDS011;29654;50.784;20.604;2022-07-23T17:25:15;3.47;;;3.22;;
43990;SDS011;29654;50.784;20.604;2022-07-23T17:30:19;3.53;;;3.22;;
43990;SDS011;29654;50.784;20.604;2022-07-23T17:35:22;3.50;;;2.95;;
43990;SDS011;29654;50.784;20.604;2022-07-23T17:40:27;4.10;;;3.25;;
43990;SDS011;29654;50.784;20.604;2022-07-23T17:45:30;3.53;;;3.17;;
43990;SDS011;29654;50.784;20.604;2022-07-23T17:50:33;4.50;;;3.30;;
43990;SDS011;29654;50.784;20.604;2022-07-23T17:55:37;4.55;;;3.30;;
43990;SDS011;29654;50.784;20.604;2022-07-23T18:00:40;3.35;;;3.15;;
43990;SDS011;29654;50.784;20.604;2022-07-23T18:05:43;3.88;;;3.58;;
43990;SDS011;29654;50.784;20.604;2022-07-23T18:10:47;3.33;;;3.03;;
43990;SDS011;29654;50.784;20.604;2022-07-23T18:15:50;3.55;;;3.25;;
43990;SDS011;29654;50.784;20.604;2022-07-23T18:20:54;3.42;;;3.13;;
43990;SDS011;29654;50.784;20.604;2022-07-23T18:25:59;4.43;;;3.75;;
43990;SDS011;29654;50.784;20.604;2022-07-23T18:31:02;3.63;;;3.30;;
43990;SDS011;29654;50.784;20.604;2022-07-23T18:36:07;4.50;;;3.97;;
43990;SDS011;29654;50.784;20.604;2022-07-23T18:41:12;4.35;;;3.30;;
43990;SDS011;29654;50.784;20.604;2022-07-23T18:46:15;4.43;;;3.85;;
43990;SDS011;29654;50.784;20.604;2022-07-23T18:51:17;4.05;;;3.75;;
43990;SDS011;29654;50.784;20.604;2022-07-23T18:56:23;5.20;;;3.50;;
43990;SDS011;29654;50.784;20.604;2022-07-23T19:01:26;3.88;;;3.50;;
43990;SDS011;29654;50.784;20.604;2022-07-23T19:06:30;4.07;;;3.75;;
43990;SDS011;29654;50.784;20.604;2022-07-23T19:11:35;4.75;;;4.25;;
43990;SDS011;29654;50.784;20.604;2022-07-23T19:16:38;4.88;;;4.40;;
43990;SDS011;29654;50.784;20.604;2022-07-23T19:21:42;4.85;;;4.45;;
43990;SDS011;29654;50.784;20.604;2022-07-23T19:26:46;5.40;;;4.90;;
43990;SDS011;29654;50.784;20.604;2022-07-23T19:31:49;5.30;;;4.80;;
43990;SDS011;29654;50.784;20.604;2022-07-23T19:36:52;8.97;;;8.17;;
43990;SDS011;29654;50.784;20.604;2022-07-23T19:41:57;5.57;;;5.07;;
43990;SDS011;29654;50.784;20.604;2022-07-23T19:47:00;7.78;;;4.47;;
43990;SDS011;29654;50.784;20.604;2022-07-23T19:52:03;4.95;;;4.15;;
43990;SDS011;29654;50.784;20.604;2022-07-23T19:57:08;5.10;;;4.18;;
43990;SDS011;29654;50.784;20.604;2022-07-23T20:02:11;5.55;;;5.00;;
43990;SDS011;29654;50.784;20.604;2022-07-23T20:07:14;5.70;;;4.88;;
43990;SDS011;29654;50.784;20.604;2022-07-23T20:12:19;9.52;;;8.63;;
43990;SDS011;29654;50.784;20.604;2022-07-23T20:17:22;6.35;;;5.75;;
43990;SDS011;29654;50.784;20.604;2022-07-23T20:22:25;6.07;;;5.57;;
43990;SDS011;29654;50.784;20.604;2022-07-23T20:27:29;5.40;;;4.97;;
43990;SDS011;29654;50.784;20.604;2022-07-23T20:32:32;5.72;;;5.18;;
43990;SDS011;29654;50.784;20.604;2022-07-23T20:37:35;5.28;;;4.82;;
43990;SDS011;29654;50.784;20.604;2022-07-23T20:42:39;6.85;;;5.00;;
43990;SDS011;29654;50.784;20.604;2022-07-23T20:47:42;5.07;;;4.68;;
43990;SDS011;29654;50.784;20.604;2022-07-23T20:52:45;5.22;;;4.75;;
43990;SDS011;29654;50.784;20.604;2022-07-23T20:57:50;5.30;;;4.50;;
43990;SDS011;29654;50.784;20.604;2022-07-23T21:02:53;5.20;;;4.80;;
43990;SDS011;29654;50.784;20.604;2022-07-23T21:07:56;5.88;;;5.28;;
43990;SDS011;29654;50.784;20.604;2022-07-23T21:13:01;5.80;;;5.10;;
43990;SDS011;29654;50.784;20.604;2022-07-23T21:18:04;4.90;;;4.50;;
43990;SDS011;29654;50.784;20.604;2022-07-23T21:23:08;6.40;;;5.80;;
43990;SDS011;29654;50.784;20.604;2022-07-23T21:28:13;5.70;;;5.22;;
43990;SDS011;29654;50.784;20.604;2022-07-23T21:33:17;6.88;;;6.28;;
43990;SDS011;29654;50.784;20.604;2022-07-23T21:38:20;5.90;;;5.30;;
43990;SDS011;29654;50.784;20.604;2022-07-23T21:43:25;6.00;;;5.60;;
43990;SDS011;29654;50.784;20.604;2022-07-23T21:48:28;7.13;;;5.80;;
43990;SDS011;29654;50.784;20.604;2022-07-23T21:53:31;6.45;;;5.95;;
43990;SDS011;29654;50.784;20.604;2022-07-23T21:58:35;6.00;;;5.38;;
43990;SDS011;29654;50.784;20.604;2022-07-23T22:03:38;5.43;;;4.93;;
43990;SDS011;29654;50.784;20.604;2022-07-23T22:08:41;6.03;;;5.60;;
43990;SDS011;29654;50.784;20.604;2022-07-23T22:13:46;5.15;;;4.75;;
43990;SDS011;29654;50.784;20.604;2022-07-23T22:18:48;5.93;;;5.43;;
43990;SDS011;29654;50.784;20.604;2022-07-23T22:23:51;5.70;;;5.20;;
43990;SDS011;29654;50.784;20.604;2022-07-23T22:28:56;5.50;;;5.05;;
43990;SDS011;29654;50.784;20.604;2022-07-23T22:33:59;6.20;;;5.70;;
43990;SDS011;29654;50.784;20.604;2022-07-23T22:39:02;6.88;;;6.00;;
43990;SDS011;29654;50.784;20.604;2022-07-23T22:44:07;5.88;;;5.47;;
43990;SDS011;29654;50.784;20.604;2022-07-23T22:49:10;6.20;;;5.70;;
43990;SDS011;29654;50.784;20.604;2022-07-23T22:54:13;6.50;;;5.00;;
43990;SDS011;29654;50.784;20.604;2022-07-23T22:59:17;5.57;;;5.13;;
43990;SDS011;29654;50.784;20.604;2022-07-23T23:04:20;5.43;;;5.00;;
43990;SDS011;29654;50.784;20.604;2022-07-23T23:09:24;6.07;;;5.60;;
43990;SDS011;29654;50.784;20.604;2022-07-23T23:14:29;5.78;;;5.28;;
43990;SDS011;29654;50.784;20.604;2022-07-23T23:19:32;6.63;;;6.03;;
43990;SDS011;29654;50.784;20.604;2022-07-23T23:24:35;6.30;;;5.80;;
43990;SDS011;29654;50.784;20.604;2022-07-23T23:29:40;5.95;;;5.45;;
43990;SDS011;29654;50.784;20.604;2022-07-23T23:34:43;6.97;;;6.43;;
43990;SDS011;29654;50.784;20.604;2022-07-23T23:39:46;7.10;;;6.38;;
43990;SDS011;29654;50.784;20.604;2022-07-23T23:44:50;8.18;;;6.15;;
43990;SDS011;29654;50.784;20.604;2022-07-23T23:49:53;6.43;;;5.93;;
43990;SDS011;29654;50.784;20.604;2022-07-23T23:54:56;6.55;;;5.95;;
